createdAt,value
2023-01-29T00:00:41.024Z,90.29
2023-01-29T00:03:43.834Z,89.88
2023-01-29T00:06:46.395Z,89.83
2023-01-29T00:09:49.224Z,89.85
2023-01-29T00:12:52.740Z,89.96
2023-01-29T00:15:59.313Z,89.94
2023-01-29T00:19:02.645Z,89.86
2023-01-29T00:22:05.446Z,89.78
2023-01-29T00:25:08.887Z,89.92
2023-01-29T00:28:12.349Z,89.90
2023-01-29T00:31:17.858Z,89.72
2023-01-29T00:34:21.513Z,89.70
2023-01-29T00:37:24.290Z,89.81
2023-01-29T00:40:27.215Z,89.65
2023-01-29T00:43:48.545Z,89.41
2023-01-29T00:46:51.454Z,89.78
2023-01-29T00:49:54.252Z,89.99
2023-01-29T00:52:57.633Z,89.91
2023-01-29T00:56:00.228Z,89.70
2023-01-29T00:59:04.287Z,89.66
2023-01-29T01:02:26.143Z,89.38
2023-01-29T01:05:29.415Z,89.33
2023-01-29T01:08:51.904Z,89.53
2023-01-29T01:11:55.867Z,89.41
2023-01-29T01:14:58.460Z,89.42
2023-01-29T01:18:02.390Z,89.18
2023-01-29T01:21:06.506Z,89.19
2023-01-29T01:24:09.441Z,89.47
2023-01-29T01:27:12.696Z,89.59
2023-01-29T01:30:16.726Z,90.13
2023-01-29T01:33:20.299Z,89.96
2023-01-29T01:36:23.280Z,90.00
2023-01-29T01:39:26.276Z,90.29
2023-01-29T01:42:32.541Z,90.42
2023-01-29T01:45:36.949Z,90.89
2023-01-29T01:48:40.123Z,91.27
2023-01-29T01:51:46.489Z,91.03
2023-01-29T01:54:49.844Z,91.04
2023-01-29T01:57:55.965Z,91.14
2023-01-29T02:00:59.084Z,91.28
2023-01-29T02:04:25.185Z,91.27
2023-01-29T02:07:46.414Z,92.35
2023-01-29T02:10:49.912Z,92.06
2023-01-29T02:13:53.748Z,92.57
2023-01-29T02:17:01.677Z,92.74
2023-01-29T02:20:24.540Z,92.86
2023-01-29T02:23:40.836Z,92.61
2023-01-29T02:27:04.786Z,92.52
2023-01-29T02:30:37.579Z,92.40
2023-01-29T02:33:55.493Z,92.29
2023-01-29T02:37:09.995Z,92.11
2023-01-29T02:40:34.601Z,91.78
2023-01-29T02:43:50.161Z,92.05
2023-01-29T02:47:09.732Z,92.34
2023-01-29T02:50:19.561Z,92.42
2023-01-29T02:53:32.749Z,92.34
2023-01-29T02:56:47.417Z,91.96
2023-01-29T03:00:10.426Z,91.49
2023-01-29T03:03:20.631Z,91.21
2023-01-29T03:06:31.977Z,91.40
2023-01-29T03:09:37.763Z,91.20
2023-01-29T03:12:44.682Z,91.33
2023-01-29T03:15:54.994Z,91.92
2023-01-29T03:19:08.705Z,92.23
2023-01-29T03:22:11.698Z,92.55
2023-01-29T03:25:34.279Z,92.20
2023-01-29T03:28:56.910Z,91.59
2023-01-29T03:32:09.290Z,92.22
2023-01-29T03:35:14.535Z,92.57
2023-01-29T03:38:17.940Z,93.26
2023-01-29T03:41:33.573Z,93.76
2023-01-29T03:44:49.049Z,94.11
2023-01-29T03:48:02.062Z,94.14
2023-01-29T03:51:53.218Z,94.74
2023-01-29T03:55:07.006Z,94.29
2023-01-29T03:58:12.936Z,94.72
2023-01-29T04:01:19.703Z,95.05
2023-01-29T04:04:28.932Z,95.10
2023-01-29T04:07:33.520Z,95.14
2023-01-29T04:10:39.219Z,95.13
2023-01-29T04:13:42.181Z,94.93
2023-01-29T04:16:48.976Z,94.72
2023-01-29T04:19:52.072Z,95.35
2023-01-29T04:22:55.019Z,94.77
2023-01-29T04:26:21.719Z,94.76
2023-01-29T04:29:33.725Z,94.36
2023-01-29T04:32:58.729Z,94.51
2023-01-29T04:36:23.196Z,94.50
2023-01-29T04:39:38.197Z,94.08
2023-01-29T04:42:43.998Z,94.62
2023-01-29T04:46:13.207Z,95.06
2023-01-29T04:49:48.605Z,95.33
2023-01-29T04:53:14.085Z,94.92
2023-01-29T04:56:30.310Z,94.69
2023-01-29T04:59:39.250Z,94.43
2023-01-29T05:02:43.662Z,94.31
2023-01-29T05:05:48.345Z,94.09
2023-01-29T05:08:51.802Z,93.45
2023-01-29T05:11:55.214Z,93.27
2023-01-29T05:15:01.448Z,93.42
2023-01-29T05:18:08.874Z,93.40
2023-01-29T05:21:11.891Z,93.28
2023-01-29T05:24:23.243Z,93.43
2023-01-29T05:27:53.159Z,93.21
2023-01-29T05:30:57.189Z,93.13
2023-01-29T05:34:00.159Z,93.30
2023-01-29T05:37:02.886Z,93.18
2023-01-29T05:40:08.852Z,93.26
2023-01-29T05:43:29.664Z,93.14
2023-01-29T05:46:32.454Z,92.60
2023-01-29T05:49:36.363Z,91.85
2023-01-29T05:52:40.807Z,91.99
2023-01-29T05:55:49.250Z,92.07
2023-01-29T05:58:52.381Z,92.22
2023-01-29T06:01:54.939Z,92.51
2023-01-29T06:04:57.879Z,92.79
2023-01-29T06:08:00.395Z,92.74
2023-01-29T06:11:03.520Z,92.80
2023-01-29T06:14:06.528Z,92.95
2023-01-29T06:17:09.337Z,92.77
2023-01-29T06:20:12.609Z,92.36
2023-01-29T06:23:15.610Z,92.21
2023-01-29T06:26:18.239Z,92.19
2023-01-29T06:29:21.186Z,91.98
2023-01-29T06:32:24.063Z,90.86
2023-01-29T06:35:27.224Z,90.73
2023-01-29T06:38:31.005Z,90.95
2023-01-29T06:41:34.672Z,89.88
2023-01-29T06:44:37.123Z,90.25
2023-01-29T06:47:40.052Z,89.90
2023-01-29T06:50:43.146Z,89.80
2023-01-29T06:53:46.715Z,90.31
2023-01-29T06:56:49.441Z,89.45
2023-01-29T06:59:52.594Z,90.13
2023-01-29T07:02:55.211Z,90.33
2023-01-29T07:05:58.241Z,90.32
2023-01-29T07:09:01.027Z,90.18
2023-01-29T07:12:04.804Z,90.70
2023-01-29T07:15:07.940Z,89.75
2023-01-29T07:18:13.558Z,90.47
2023-01-29T07:21:16.595Z,90.44
2023-01-29T07:24:19.608Z,90.57
2023-01-29T07:27:22.128Z,90.94
2023-01-29T07:30:25.282Z,91.11
2023-01-29T07:33:27.968Z,90.85
2023-01-29T07:36:31.035Z,90.23
2023-01-29T07:39:33.587Z,90.27
2023-01-29T07:42:40.066Z,90.04
2023-01-29T07:45:42.706Z,89.48
2023-01-29T07:48:45.603Z,88.26
2023-01-29T07:51:48.294Z,89.34
2023-01-29T07:54:51.143Z,89.52
2023-01-29T07:57:57.554Z,89.46
2023-01-29T08:01:00.586Z,88.95
2023-01-29T08:04:03.562Z,89.61
2023-01-29T08:07:06.149Z,88.86
2023-01-29T08:10:09.897Z,89.26
2023-01-29T08:13:18.743Z,88.71
2023-01-29T08:16:21.609Z,88.88
2023-01-29T08:19:24.379Z,88.11
2023-01-29T08:22:27.480Z,86.89
2023-01-29T08:25:30.606Z,87.13
2023-01-29T08:28:33.580Z,87.10
2023-01-29T08:31:37.131Z,87.40
2023-01-29T08:34:40.062Z,87.37
2023-01-29T08:37:42.531Z,87.23
2023-01-29T08:40:45.551Z,86.41
2023-01-29T08:43:48.072Z,86.13
2023-01-29T08:46:53.698Z,87.06
2023-01-29T08:49:56.445Z,86.71
2023-01-29T08:53:00.562Z,84.97
2023-01-29T08:56:03.292Z,85.34
2023-01-29T08:59:06.337Z,84.07
2023-01-29T09:02:10.859Z,85.14
2023-01-29T09:05:13.855Z,84.78
2023-01-29T09:08:16.581Z,85.24
2023-01-29T09:11:19.952Z,83.81
2023-01-29T09:14:22.760Z,84.21
2023-01-29T09:17:25.794Z,84.85
2023-01-29T09:20:28.600Z,84.28
2023-01-29T09:23:31.818Z,83.84
2023-01-29T09:26:34.767Z,84.51
2023-01-29T09:29:38.221Z,83.80
2023-01-29T09:32:56.197Z,82.59
2023-01-29T09:36:03.832Z,83.34
2023-01-29T09:39:06.443Z,82.91
2023-01-29T09:42:16.596Z,82.10
2023-01-29T09:45:24.858Z,83.56
2023-01-29T09:48:30.353Z,82.51
2023-01-29T09:51:43.799Z,80.88
2023-01-29T09:54:56.117Z,81.34
2023-01-29T09:58:01.209Z,80.15
2023-01-29T10:01:07.846Z,80.98
2023-01-29T10:04:23.225Z,80.96
2023-01-29T10:07:37.848Z,80.53
2023-01-29T10:11:01.079Z,80.61
2023-01-29T10:14:41.436Z,80.87
2023-01-29T10:17:55.309Z,80.69
2023-01-29T10:21:04.689Z,79.26
2023-01-29T10:24:17.233Z,79.92
2023-01-29T10:27:20.118Z,78.66
2023-01-29T10:30:36.966Z,80.32
2023-01-29T10:34:01.426Z,79.20
2023-01-29T10:37:36.974Z,79.51
2023-01-29T10:40:47.100Z,79.54
2023-01-29T10:44:08.916Z,78.68
2023-01-29T10:47:23.623Z,77.85
2023-01-29T10:50:50.573Z,79.03
2023-01-29T10:54:16.235Z,76.66
2023-01-29T10:57:43.997Z,76.06
2023-01-29T11:00:46.835Z,75.55
2023-01-29T11:04:02.335Z,74.57
2023-01-29T11:07:04.833Z,73.91
2023-01-29T11:10:11.633Z,72.96
2023-01-29T11:13:15.583Z,74.04
2023-01-29T11:16:18.435Z,73.01
2023-01-29T11:19:40.536Z,73.60
2023-01-29T11:22:53.957Z,71.75
2023-01-29T11:25:57.897Z,72.87
2023-01-29T11:29:00.968Z,71.66
2023-01-29T11:32:25.588Z,73.06
2023-01-29T11:35:30.267Z,72.22
2023-01-29T11:38:33.048Z,72.72
2023-01-29T11:41:49.391Z,73.73
2023-01-29T11:44:51.981Z,73.44
2023-01-29T11:47:56.544Z,72.22
2023-01-29T11:51:05.537Z,72.13
2023-01-29T11:54:15.319Z,73.01
2023-01-29T11:57:36.483Z,71.76
2023-01-29T12:00:40.527Z,71.82
2023-01-29T12:03:48.507Z,73.16
2023-01-29T12:06:53.850Z,71.20
2023-01-29T12:09:58.730Z,72.48
2023-01-29T12:13:11.980Z,71.76
2023-01-29T12:16:39.392Z,71.48
2023-01-29T12:19:49.169Z,71.09
2023-01-29T12:22:58.884Z,70.02
2023-01-29T12:26:23.153Z,70.51
2023-01-29T12:29:50.001Z,70.64
2023-01-29T12:33:24.756Z,70.45
2023-01-29T12:37:10.995Z,70.71
2023-01-29T12:40:16.390Z,70.89
2023-01-29T12:43:29.023Z,69.98
2023-01-29T12:46:39.458Z,69.61
2023-01-29T12:49:43.013Z,69.96
2023-01-29T12:52:53.162Z,69.02
2023-01-29T12:56:00.295Z,68.33
2023-01-29T12:59:10.328Z,68.66
2023-01-29T13:02:32.027Z,68.83
2023-01-29T13:06:04.162Z,68.45
2023-01-29T13:09:12.006Z,68.71
2023-01-29T13:12:17.514Z,68.78
2023-01-29T13:15:30.506Z,68.80
2023-01-29T13:18:44.909Z,69.01
2023-01-29T13:21:48.312Z,68.69
2023-01-29T13:25:03.657Z,68.01
2023-01-29T13:28:17.274Z,68.22
2023-01-29T13:31:27.918Z,67.61
2023-01-29T13:34:36.893Z,66.85
2023-01-29T13:37:47.585Z,66.28
2023-01-29T13:40:50.981Z,67.37
2023-01-29T13:43:53.792Z,68.14
2023-01-29T13:47:02.383Z,67.78
2023-01-29T13:50:11.207Z,66.36
2023-01-29T13:53:23.623Z,65.89
2023-01-29T13:56:35.457Z,65.69
2023-01-29T13:59:53.612Z,66.64
2023-01-29T14:03:08.531Z,67.39
2023-01-29T14:06:11.639Z,66.66
2023-01-29T14:09:39.369Z,66.15
2023-01-29T14:12:43.613Z,67.96
2023-01-29T14:16:06.678Z,66.98
2023-01-29T14:19:18.212Z,67.22
2023-01-29T14:22:26.709Z,67.98
2023-01-29T14:25:38.012Z,69.07
2023-01-29T14:28:42.868Z,67.92
2023-01-29T14:32:09.595Z,67.20
2023-01-29T14:35:27.428Z,69.29
2023-01-29T14:38:33.139Z,69.05
2023-01-29T14:41:36.349Z,69.44
2023-01-29T14:44:45.742Z,68.97
2023-01-29T14:47:48.459Z,69.03
2023-01-29T14:50:52.433Z,68.38
2023-01-29T14:54:04.241Z,69.24
2023-01-29T14:57:11.743Z,69.34
2023-01-29T15:00:22.924Z,69.59
2023-01-29T15:03:44.375Z,68.78
2023-01-29T15:06:56.253Z,69.25
2023-01-29T15:10:22.687Z,70.00
2023-01-29T15:13:50.860Z,69.34
2023-01-29T15:17:17.169Z,67.79
2023-01-29T15:20:34.704Z,68.68
2023-01-29T15:23:37.850Z,68.81
2023-01-29T15:26:42.836Z,68.46
2023-01-29T15:29:56.385Z,67.99
2023-01-29T15:32:59.720Z,68.83
2023-01-29T15:36:07.812Z,66.74
2023-01-29T15:39:13.562Z,68.25
2023-01-29T15:42:21.748Z,68.49
2023-01-29T15:45:28.107Z,69.25
2023-01-29T15:48:41.027Z,69.30
2023-01-29T15:51:43.783Z,68.50
2023-01-29T15:54:46.868Z,69.37
2023-01-29T15:57:50.006Z,69.93
2023-01-29T16:00:55.712Z,70.36
2023-01-29T16:04:02.521Z,70.98
2023-01-29T16:07:05.330Z,71.14
2023-01-29T16:10:16.348Z,72.12
2023-01-29T16:13:27.641Z,71.66
2023-01-29T16:16:30.701Z,71.94
2023-01-29T16:19:33.715Z,72.79
2023-01-29T16:22:37.528Z,72.92
2023-01-29T16:25:40.441Z,72.46
2023-01-29T16:28:44.584Z,72.62
2023-01-29T16:31:49.168Z,72.53
2023-01-29T16:34:57.180Z,72.21
2023-01-29T16:38:03.935Z,72.88
2023-01-29T16:41:26.610Z,72.93
2023-01-29T16:44:35.635Z,72.72
2023-01-29T16:47:41.520Z,72.89
2023-01-29T16:50:54.609Z,72.47
2023-01-29T16:53:59.857Z,72.81
2023-01-29T16:57:03.396Z,72.99
2023-01-29T17:00:09.156Z,73.52
2023-01-29T17:03:12.300Z,73.67
2023-01-29T17:06:25.751Z,73.29
2023-01-29T17:09:34.579Z,73.07
2023-01-29T17:12:38.998Z,73.37
2023-01-29T17:15:44.729Z,73.40
2023-01-29T17:18:47.654Z,73.54
2023-01-29T17:21:50.473Z,74.21
2023-01-29T17:24:53.668Z,75.23
2023-01-29T17:27:56.536Z,74.33
2023-01-29T17:31:06.375Z,73.97
2023-01-29T17:34:12.770Z,74.27
2023-01-29T17:37:16.656Z,74.50
2023-01-29T17:40:34.514Z,74.16
2023-01-29T17:43:37.746Z,74.40
2023-01-29T17:46:40.295Z,74.69
2023-01-29T17:49:43.595Z,74.23
2023-01-29T17:52:46.856Z,74.29
2023-01-29T17:55:50.554Z,74.25
2023-01-29T17:58:53.611Z,74.41
2023-01-29T18:01:57.090Z,74.16
2023-01-29T18:05:00.490Z,74.50
2023-01-29T18:08:04.594Z,73.87
2023-01-29T18:11:11.533Z,74.50
2023-01-29T18:14:14.766Z,74.32
2023-01-29T18:17:22.322Z,74.96
2023-01-29T18:20:28.125Z,74.74
2023-01-29T18:23:32.332Z,75.41
2023-01-29T18:26:36.116Z,75.24
2023-01-29T18:29:39.014Z,74.89
2023-01-29T18:32:41.850Z,75.18
2023-01-29T18:35:45.291Z,75.57
2023-01-29T18:38:48.108Z,76.80
2023-01-29T18:41:51.472Z,76.43
2023-01-29T18:44:54.179Z,76.01
2023-01-29T18:47:57.717Z,77.01
2023-01-29T18:51:00.831Z,77.53
2023-01-29T18:54:04.203Z,77.65
2023-01-29T18:57:14.092Z,76.43
2023-01-29T19:00:29.852Z,77.21
2023-01-29T19:03:32.810Z,76.95
2023-01-29T19:06:37.193Z,77.97
2023-01-29T19:09:42.115Z,77.88
2023-01-29T19:12:47.727Z,77.77
2023-01-29T19:15:50.504Z,78.07
2023-01-29T19:18:56.068Z,77.50
2023-01-29T19:21:59.576Z,78.08
2023-01-29T19:25:02.662Z,78.02
2023-01-29T19:28:07.276Z,77.49
2023-01-29T19:31:10.172Z,77.67
2023-01-29T19:34:13.283Z,78.03
2023-01-29T19:37:16.864Z,77.85
2023-01-29T19:40:19.721Z,76.69
2023-01-29T19:43:22.660Z,77.58
2023-01-29T19:46:25.165Z,76.57
2023-01-29T19:49:28.392Z,77.21
2023-01-29T19:52:51.067Z,77.40
2023-01-29T19:56:03.156Z,77.21
2023-01-29T19:59:09.296Z,77.85
2023-01-29T20:02:12.511Z,77.52
2023-01-29T20:05:18.413Z,77.52
2023-01-29T20:08:22.348Z,77.38
2023-01-29T20:11:25.436Z,77.82
2023-01-29T20:14:28.216Z,78.09
2023-01-29T20:17:31.333Z,78.02
2023-01-29T20:20:33.913Z,78.03
2023-01-29T20:23:38.733Z,78.33
2023-01-29T20:26:41.885Z,78.06
2023-01-29T20:29:46.559Z,79.12
2023-01-29T20:32:49.083Z,78.84
2023-01-29T20:35:59.607Z,78.63
2023-01-29T20:39:02.261Z,77.99
2023-01-29T20:42:05.494Z,79.04
2023-01-29T20:45:12.307Z,79.05
2023-01-29T20:48:15.476Z,78.63
2023-01-29T20:51:18.647Z,79.33
2023-01-29T20:54:21.700Z,79.05
2023-01-29T20:57:24.933Z,78.74
2023-01-29T21:00:28.012Z,78.74
2023-01-29T21:03:30.906Z,78.94
2023-01-29T21:06:34.068Z,78.82
2023-01-29T21:09:36.863Z,78.93
2023-01-29T21:12:39.656Z,79.28
2023-01-29T21:15:42.846Z,78.74
2023-01-29T21:18:46.195Z,79.24
2023-01-29T21:21:48.736Z,79.31
2023-01-29T21:24:51.611Z,79.23
2023-01-29T21:27:54.392Z,79.50
2023-01-29T21:31:04.223Z,79.86
2023-01-29T21:34:07.941Z,79.78
2023-01-29T21:37:10.878Z,80.96
2023-01-29T21:40:13.528Z,80.28
2023-01-29T21:43:16.856Z,80.27
2023-01-29T21:46:20.800Z,80.50
2023-01-29T21:49:23.892Z,80.24
2023-01-29T21:52:26.470Z,80.07
2023-01-29T21:55:29.396Z,80.69
2023-01-29T21:58:32.236Z,80.57
2023-01-29T22:01:37.549Z,80.58
2023-01-29T22:04:42.451Z,80.91
2023-01-29T22:07:44.971Z,80.77
2023-01-29T22:10:48.233Z,80.35
2023-01-29T22:13:50.871Z,80.99
2023-01-29T22:16:53.682Z,80.57
2023-01-29T22:19:56.309Z,80.98
2023-01-29T22:23:00.625Z,80.70
2023-01-29T22:26:04.498Z,80.98
2023-01-29T22:29:07.331Z,81.16
2023-01-29T22:32:10.530Z,81.48
2023-01-29T22:35:13.494Z,81.02
2023-01-29T22:38:16.019Z,81.19
2023-01-29T22:41:18.864Z,81.16
2023-01-29T22:44:21.692Z,81.06
2023-01-29T22:47:24.506Z,81.46
2023-01-29T22:50:27.073Z,81.33
2023-01-29T22:53:29.848Z,80.96
2023-01-29T22:56:32.325Z,80.82
2023-01-29T22:59:35.223Z,81.33
2023-01-29T23:02:38.019Z,81.26
2023-01-29T23:05:40.890Z,80.85
2023-01-29T23:08:44.332Z,81.05
2023-01-29T23:11:47.430Z,80.90
2023-01-29T23:14:49.956Z,81.09
2023-01-29T23:17:52.800Z,80.46
2023-01-29T23:20:58.378Z,80.33
2023-01-29T23:24:01.499Z,80.47
2023-01-29T23:27:16.057Z,80.48
2023-01-29T23:30:19.385Z,80.83
2023-01-29T23:33:22.469Z,80.82
2023-01-29T23:36:25.416Z,80.60
2023-01-29T23:39:27.906Z,80.86
2023-01-29T23:42:30.825Z,80.92
2023-01-29T23:45:33.530Z,80.71
2023-01-29T23:48:36.633Z,80.40
2023-01-29T23:51:39.190Z,80.42
2023-01-29T23:54:42.253Z,80.09
2023-01-29T23:57:44.753Z,80.22
